Lorraine L — WDB8580 — position and weather

sailwx.info

Track history (hours):
 
Tides and Currents Weather Stations Pressure Air Temp Water Temp Dewpoint Dewpoint Depression Visibility Wind Speed Wind Dir Waves Ship Positions

Lorraine L

Owner: Highland Towing LLC, Metairie, LA. More information available from US FCC via Universal Licensing System and Coast Guard Vessel Documentation Center.

Last reported at 2016-Sep-28 08:31 UTC. Time now 2016-Sep-28 10:17 UTC.
Position N 30°06' W 093°18'.

Length 19 m; draft 2.4 m.

Type: Towing. MMSI: 366961130.

Date/timePositionNaut miles runAvg speedWind from/ knotsBaromVisibWave heightAir tempDewpointWater temp
2016-Sep-28 08:31N 30°06' W 093°18'0 0.0
2016-Sep-28 03:31N 30°06' W 093°18'0 0.0
2016-Sep-28 02:31N 30°06' W 093°18'0 0.0
2016-Sep-28 01:31N 30°06' W 093°18'0 0.0
2016-Sep-27 23:33N 30°06' W 093°18'0 0.0
2016-Sep-27 19:33N 30°06' W 093°18'0 0.0
2016-Sep-27 14:33N 30°06' W 093°18'0 0.0
2016-Sep-27 13:33N 30°06' W 093°18'0 0.0
2016-Sep-27 10:33N 30°06' W 093°18'0 0.0
2016-Sep-27 00:33N 30°06' W 093°18'0 0.0
2016-Sep-26 20:33N 30°06' W 093°18'0 0.0
2016-Sep-26 19:33N 30°06' W 093°18'0 0.0
2016-Sep-26 15:33N 30°06' W 093°18'0 0.0
2016-Sep-26 13:33N 30°06' W 093°18'0 0.0
2016-Sep-26 11:33N 30°06' W 093°18'0 0.0
2016-Sep-26 08:31N 30°06' W 093°18'0 0.0
2016-Sep-26 02:31N 30°06' W 093°18'0 0.0
2016-Sep-26 01:31N 30°06' W 093°18'0 0.0
2016-Sep-26 00:31N 30°06' W 093°18'0 0.0
2016-Sep-25 21:31N 30°06' W 093°18'0 0.0
2016-Sep-25 17:28N 30°06' W 093°18'0 0.0
2016-Sep-25 16:31N 30°06' W 093°18'0 0.0
2016-Sep-25 15:31N 30°06' W 093°18'0 0.0
2016-Sep-25 14:31N 30°06' W 093°18'0 0.0
2016-Sep-25 12:31N 30°06' W 093°18'0 0.0
2016-Sep-25 11:31N 30°06' W 093°18'0 0.0
2016-Sep-25 10:31N 30°06' W 093°18'0 0.0
2016-Sep-25 09:31N 30°06' W 093°18'0 0.0
2016-Sep-25 07:31N 30°06' W 093°18'0 0.0
2016-Sep-25 04:31N 30°06' W 093°18'0 0.0
2016-Sep-25 00:31N 30°06' W 093°18'0 0.0
2016-Sep-24 22:31N 30°06' W 093°18'0 0.0
2016-Sep-24 21:22N 30°06' W 093°18'0 0.1
2016-Sep-24 19:32N 30°06' W 093°18'0 0.0
2016-Sep-24 18:31N 30°06' W 093°18'0 0.0
2016-Sep-24 17:31N 30°06' W 093°18'0 0.2
2016-Sep-24 16:34N 30°06' W 093°19'9 4.4
2016-Sep-24 14:34N 30°04' W 093°28'11 4.8
2016-Sep-24 12:21N 30°04' W 093°40'  
2016-Sep-21 09:33N 29°50' W 093°57'26 4.4
2016-Sep-21 03:33N 30°04' W 093°31'5 4.8
2016-Sep-21 02:33N 30°04' W 093°26'10 1.1
2016-Sep-20 17:31N 30°11' W 093°19'0 0.0
2016-Sep-20 14:31N 30°11' W 093°19'0 0.0
2016-Sep-20 13:31N 30°11' W 093°19'5 1.6
2016-Sep-20 10:33N 30°06' W 093°18'5 2.5
2016-Sep-20 08:33N 30°02' W 093°15'5 4.8
2016-Sep-20 07:33N 29°58' W 093°12'5 4.6
2016-Sep-20 06:33N 29°56' W 093°07'14 3.5
2016-Sep-20 02:32N 30°06' W 093°18'0 0.0
2016-Sep-19 23:32N 30°06' W 093°18'0 0.0
2016-Sep-19 19:32N 30°06' W 093°18'0 0.0
2016-Sep-19 18:32N 30°06' W 093°18'0 0.0
2016-Sep-19 16:29N 30°06' W 093°18'0 0.0
2016-Sep-19 14:32N 30°06' W 093°18'0 0.0
2016-Sep-19 13:32N 30°06' W 093°18'0 0.0
2016-Sep-19 12:32N 30°06' W 093°18'0 0.0
2016-Sep-19 11:32N 30°06' W 093°18'0 0.0
2016-Sep-19 09:32N 30°06' W 093°18'0 0.0
2016-Sep-19 07:32N 30°06' W 093°18'0 0.0
2016-Sep-19 06:32N 30°06' W 093°18'0 0.0
2016-Sep-19 03:32N 30°06' W 093°18'0 0.0
2016-Sep-19 02:32N 30°06' W 093°18'0 0.0
2016-Sep-19 00:32N 30°06' W 093°18'0 0.0
2016-Sep-18 19:32N 30°06' W 093°18'0 0.0
2016-Sep-18 15:32N 30°06' W 093°18'0 0.0
2016-Sep-18 14:32N 30°06' W 093°18'0 0.0
2016-Sep-18 10:33N 30°06' W 093°18'0 0.0
2016-Sep-18 09:32N 30°06' W 093°18'  
Track history (hours):
 
Tides and Currents Weather Stations Pressure Air Temp Water Temp Dewpoint Dewpoint Depression Visibility Wind Speed Wind Dir Waves Ship Positions

Lorraine L

Owner: Highland Towing LLC, Metairie, LA. More information available from US FCC via Universal Licensing System and Coast Guard Vessel Documentation Center.

Last reported at 2016-Sep-28 08:31 UTC. Time now 2016-Sep-28 10:17 UTC.
Position N 30°06' W 093°18'.

Length 19 m; draft 2.4 m.

Type: Towing. MMSI: 366961130.

Date/timePositionNaut miles runAvg speedWind from/ knotsBaromVisibWave heightAir tempDewpointWater temp
2016-Sep-28 08:31N 30°06' W 093°18'0 0.0
2016-Sep-28 03:31N 30°06' W 093°18'0 0.0
2016-Sep-28 02:31N 30°06' W 093°18'0 0.0
2016-Sep-28 01:31N 30°06' W 093°18'0 0.0
2016-Sep-27 23:33N 30°06' W 093°18'0 0.0
2016-Sep-27 19:33N 30°06' W 093°18'0 0.0
2016-Sep-27 14:33N 30°06' W 093°18'0 0.0
2016-Sep-27 13:33N 30°06' W 093°18'0 0.0
2016-Sep-27 10:33N 30°06' W 093°18'0 0.0
2016-Sep-27 00:33N 30°06' W 093°18'0 0.0
2016-Sep-26 20:33N 30°06' W 093°18'0 0.0
2016-Sep-26 19:33N 30°06' W 093°18'0 0.0
2016-Sep-26 15:33N 30°06' W 093°18'0 0.0
2016-Sep-26 13:33N 30°06' W 093°18'0 0.0
2016-Sep-26 11:33N 30°06' W 093°18'0 0.0
2016-Sep-26 08:31N 30°06' W 093°18'0 0.0
2016-Sep-26 02:31N 30°06' W 093°18'0 0.0
2016-Sep-26 01:31N 30°06' W 093°18'0 0.0
2016-Sep-26 00:31N 30°06' W 093°18'0 0.0
2016-Sep-25 21:31N 30°06' W 093°18'0 0.0
2016-Sep-25 17:28N 30°06' W 093°18'0 0.0
2016-Sep-25 16:31N 30°06' W 093°18'0 0.0
2016-Sep-25 15:31N 30°06' W 093°18'0 0.0
2016-Sep-25 14:31N 30°06' W 093°18'0 0.0
2016-Sep-25 12:31N 30°06' W 093°18'0 0.0
2016-Sep-25 11:31N 30°06' W 093°18'0 0.0
2016-Sep-25 10:31N 30°06' W 093°18'0 0.0
2016-Sep-25 09:31N 30°06' W 093°18'0 0.0
2016-Sep-25 07:31N 30°06' W 093°18'0 0.0
2016-Sep-25 04:31N 30°06' W 093°18'0 0.0
2016-Sep-25 00:31N 30°06' W 093°18'0 0.0
2016-Sep-24 22:31N 30°06' W 093°18'0 0.0
2016-Sep-24 21:22N 30°06' W 093°18'0 0.1
2016-Sep-24 19:32N 30°06' W 093°18'0 0.0
2016-Sep-24 18:31N 30°06' W 093°18'0 0.0
2016-Sep-24 17:31N 30°06' W 093°18'0 0.2
2016-Sep-24 16:34N 30°06' W 093°19'9 4.4
2016-Sep-24 14:34N 30°04' W 093°28'11 4.8
2016-Sep-24 12:21N 30°04' W 093°40'  
2016-Sep-21 09:33N 29°50' W 093°57'26 4.4
2016-Sep-21 03:33N 30°04' W 093°31'5 4.8
2016-Sep-21 02:33N 30°04' W 093°26'10 1.1
2016-Sep-20 17:31N 30°11' W 093°19'0 0.0
2016-Sep-20 14:31N 30°11' W 093°19'0 0.0
2016-Sep-20 13:31N 30°11' W 093°19'5 1.6
2016-Sep-20 10:33N 30°06' W 093°18'5 2.5
2016-Sep-20 08:33N 30°02' W 093°15'5 4.8
2016-Sep-20 07:33N 29°58' W 093°12'5 4.6
2016-Sep-20 06:33N 29°56' W 093°07'14 3.5
2016-Sep-20 02:32N 30°06' W 093°18'0 0.0
2016-Sep-19 23:32N 30°06' W 093°18'0 0.0
2016-Sep-19 19:32N 30°06' W 093°18'0 0.0
2016-Sep-19 18:32N 30°06' W 093°18'0 0.0
2016-Sep-19 16:29N 30°06' W 093°18'0 0.0
2016-Sep-19 14:32N 30°06' W 093°18'0 0.0
2016-Sep-19 13:32N 30°06' W 093°18'0 0.0
2016-Sep-19 12:32N 30°06' W 093°18'0 0.0
2016-Sep-19 11:32N 30°06' W 093°18'0 0.0
2016-Sep-19 09:32N 30°06' W 093°18'0 0.0
2016-Sep-19 07:32N 30°06' W 093°18'0 0.0
2016-Sep-19 06:32N 30°06' W 093°18'0 0.0
2016-Sep-19 03:32N 30°06' W 093°18'0 0.0
2016-Sep-19 02:32N 30°06' W 093°18'0 0.0
2016-Sep-19 00:32N 30°06' W 093°18'0 0.0
2016-Sep-18 19:32N 30°06' W 093°18'0 0.0
2016-Sep-18 15:32N 30°06' W 093°18'0 0.0
2016-Sep-18 14:32N 30°06' W 093°18'0 0.0
2016-Sep-18 10:33N 30°06' W 093°18'0 0.0
2016-Sep-18 09:32N 30°06' W 093°18'  

Dump ship's entire track history